Aeroporto :
LOGIN :

Iscrizione | Disclaimer

   EN    FR    IT 

 










Sommario :    VFR   VFR Marginale   IFR   IFR Intensivo   IFR Molto Intensivo
Visibilità : 
Base nubi : 
>= 8 km
>= 3000ft
5 / 8 km
1000 / 3000 ft
1500m / 5 km
500 / 1000 ft
800 / 1500m
200 / 500 ft
< 800m
< 200 ft
Simboli :   Temporali  Nebbia  Neve Forte  Precipitazioni Forti  Vento > 20 kt
SIGMETs :   Varie  Temporali  Ghiacco  Turbolenza  Onda orograficha  Ceneri Vulcaniche






- Altitudine del aeroporto : 83 ft
- Codice IATA : LHR


EGLL - London Heathrow

ULTIMO METAR :
  • 022220Z AUTO 09003KT 9999 BKN022 BKN031 14/12 Q1014 NOSIG

METARs OBSOLETI :
  • 022150Z AUTO 09003KT 9999 BKN021 OVC026 14/12 Q1014 NOSIG
  • 022120Z AUTO 09005KT 9999 BKN023 14/12 Q1014 NOSIG
  • 022050Z AUTO 10004KT 9999 BKN025 14/12 Q1014 NOSIG
  • 022020Z AUTO 15004KT 110V170 9999 -RA FEW026/// //////TCU 15/12 Q1014 NOSIG
  • 021950Z AUTO 17007KT 7000 -RA BKN019 16/11 Q1014 NOSIG

TAF TAF EGLL
Valido dal 02 a 18 ore il 04 a 00 ore UTC


021706Z 0218/0324 17005KT 9999 FEW030
TEMPO 0218/0302 7000 SHRA
PROB30
TEMPO 0218/0301 3000 +SHRA
PROB30 0302/0308 8000
PROB30
TEMPO 0309/0317 7000 SHRA



MetMap, La meteo Aeronautica in un colpo d'occhio ! - Copyright ORBIFLY Dicembre 2007 - Disclaimer

ORBIFLY MET'MAP TEAM :

Programmazione e sviluppo : Alexandra Zaïnal
Concezione : Baudouin d'Aumeries
Aiuto per la programmazione : Marc-Olivier Méhu
Supporto tecnico e logistico : Manuel Goepfert
Aiuto per la traduzione : Arnaldo La Scala

Contatto : metmap@orbifly.com




FONTI E CREDITI :

   NOAA